Delray Beach, FL

9:27 AM EST on December 07, 2016 (GMT -0500)
Delray Beach | | Change Station

Elev 30 ft 26.47 °N, 80.09 °W | Updated 8 seconds ago

Overcast
Overcast
75.0 °F
Feels Like 75 °F
N
1.7
Wind Variable Wind from WNW
Gusts 3.2 mph

Today
High -- | Low -- °F
--% Chance of Precip.
Yesterday
High -- | Low -- °F
Precip. -- in
Pressure 30.06 in
Visibility 4.0 miles
Clouds Overcast 400 ft
Heat Index 75 °F
Dew Point 70 °F
Humidity 85%
Rainfall 0.00 in
Snow Depth Not available.
6:55 AM 5:28 PM
First Quarter, 53% visible
METAR KPMP 071353Z 34007KT 4SM BR OVC004 23/22 A3005 RMK AO2 SLP177 T02280222
Pressure 30.06 in
Visibility 4.0 miles
Clouds Overcast 400 ft
Heat Index 75 °F
Dew Point 70 °F
Humidity 85%
Rainfall 0.00 in
Snow Depth Not available.
6:55 AM 5:28 PM
First Quarter, 53% visible
METAR KPMP 071353Z 34007KT 4SM BR OVC004 23/22 A3005 RMK AO2 SLP177 T02280222

10-Day Weather Forecast

Almanac

Astronomy

Dec. 07, 2016 Rise Set
Actual Time
Civil Twilight
Nautical Twilight
Astronomical Twilight
Moon
Length of Visible Light
Length of Day
Tomorrow will be .
, % of the Moon is Illuminated

Today's Extremes

State Highs State Lows

Community

WunderPhotos

Upload Photos

1,956,116 photos uploaded!

WunderBlog® & News

Nearby

Air Quality

  Air Quality AQ Index Pollutant
Not available.

Snow Depth

Station Depth Elevation

Earthquake Activity

City Distance Mag. Time & Date
Minimum magnitude displayed is 2.5.

Coastal Water Temperatures

Place Temperature

Stations

Nearby Weather Stations

Station Location Temp. Windchill Dew Point Humidity Wind Precip. Elev Updated Type
                   

Watches & Warnings

There are currently no watches in effect.